Taylortown, Louisiana
Current Conditions -  °F | °C
As of 12:58 PM on Sunday 23 Nov 2014 (Local Time) from KBAD Reporting Station
Few Clouds Few Clouds  
Wind Chill: 70°   Ceiling: Unl
Heat Index: 70°   Visibility: 10mi
Dew Point: 60°   Wind: 13mph
Humidity: 69%   Direction: 220°SW
Pressure: 29.45"   Gusts: NA
Location:  32.3415°N, 93.4966°W
Report Text: KBAD 231858Z AUTO 22011KT 10SM FEW025 21/15 A2945 RMK AO2 SLP974 T02120153
Loading
Personal Weather Stations






























Interactive Weather Map New forecast layout! Learn more

10-Day Weather Forecast

Advertisements
Track Severe Weather on mobile